createdAt,value
2023-02-19T00:00:26.222Z,0.00
2023-02-19T00:01:26.222Z,0.00
2023-02-19T00:02:26.185Z,0.00
2023-02-19T00:03:26.319Z,0.00
2023-02-19T00:04:26.140Z,0.00
2023-02-19T00:05:26.106Z,0.00
2023-02-19T00:06:26.112Z,0.00
2023-02-19T00:07:26.075Z,0.00
2023-02-19T00:08:26.194Z,0.00
2023-02-19T00:09:26.011Z,0.00
2023-02-19T00:10:26.039Z,0.00
2023-02-19T00:11:26.060Z,0.00
2023-02-19T00:12:25.968Z,0.00
2023-02-19T00:13:25.905Z,0.00
2023-02-19T00:14:25.909Z,0.00
2023-02-19T00:15:25.916Z,0.00
2023-02-19T00:16:25.875Z,0.00
2023-02-19T00:17:25.883Z,0.00
2023-02-19T00:18:25.825Z,0.00
2023-02-19T00:19:25.761Z,0.00
2023-02-19T00:20:25.813Z,0.00
2023-02-19T00:21:25.716Z,0.00
2023-02-19T00:22:25.717Z,0.00
2023-02-19T00:23:25.675Z,0.00
2023-02-19T00:24:25.692Z,0.00
2023-02-19T00:25:25.672Z,0.00
2023-02-19T00:26:25.654Z,0.00
2023-02-19T00:27:25.660Z,0.00
2023-02-19T00:28:25.646Z,0.00
2023-02-19T00:29:25.626Z,0.00
2023-02-19T00:30:25.579Z,0.00
2023-02-19T00:31:25.704Z,0.00
2023-02-19T00:32:25.480Z,0.00
2023-02-19T00:33:25.469Z,0.00
2023-02-19T00:34:25.434Z,0.00
2023-02-19T00:35:25.461Z,0.00
2023-02-19T00:36:25.408Z,0.00
2023-02-19T00:37:25.371Z,0.00
2023-02-19T00:38:25.325Z,0.00
2023-02-19T00:39:25.299Z,0.00
2023-02-19T00:40:25.281Z,0.00
2023-02-19T00:41:25.297Z,0.00
2023-02-19T00:42:25.240Z,0.00
2023-02-19T00:43:25.212Z,0.00
2023-02-19T00:44:25.194Z,0.00
2023-02-19T00:45:25.199Z,0.00
2023-02-19T00:46:25.220Z,0.00
2023-02-19T00:47:25.136Z,0.00
2023-02-19T00:48:25.163Z,0.00
2023-02-19T00:49:25.104Z,0.00
2023-02-19T00:50:25.063Z,0.00
2023-02-19T00:51:25.047Z,0.00
2023-02-19T00:52:25.031Z,0.00
2023-02-19T00:53:25.093Z,0.00
2023-02-19T00:54:24.973Z,0.00
2023-02-19T00:55:24.922Z,0.00
2023-02-19T00:56:24.910Z,0.00
2023-02-19T00:57:24.880Z,0.00
2023-02-19T00:58:24.892Z,0.00
2023-02-19T00:59:24.866Z,0.00
2023-02-19T01:00:24.810Z,0.00
2023-02-19T01:01:24.929Z,0.00
2023-02-19T01:02:24.791Z,0.00
2023-02-19T01:03:24.762Z,0.00
2023-02-19T01:04:24.777Z,0.00
2023-02-19T01:05:24.712Z,0.00
2023-02-19T01:06:24.664Z,0.00
2023-02-19T01:07:24.689Z,0.00
2023-02-19T01:08:24.617Z,0.00
2023-02-19T01:09:24.581Z,0.00
2023-02-19T01:10:24.574Z,0.00
2023-02-19T01:11:24.550Z,0.00
2023-02-19T01:12:24.530Z,0.00
2023-02-19T01:13:24.486Z,0.00
2023-02-19T01:14:24.465Z,0.00
2023-02-19T01:15:24.458Z,0.00
2023-02-19T01:16:24.469Z,0.00
2023-02-19T01:17:24.398Z,0.00
2023-02-19T01:18:24.367Z,0.00
2023-02-19T01:19:24.433Z,0.00
2023-02-19T01:20:24.385Z,0.00
2023-02-19T01:21:24.353Z,0.00
2023-02-19T01:22:24.297Z,0.00
2023-02-19T01:23:24.253Z,0.00
2023-02-19T01:24:24.282Z,0.00
2023-02-19T01:25:24.257Z,0.00
2023-02-19T01:26:24.238Z,0.00
2023-02-19T01:27:24.157Z,0.00
2023-02-19T01:28:24.130Z,0.00
2023-02-19T01:29:24.129Z,0.00
2023-02-19T01:30:24.230Z,0.00
2023-02-19T01:31:24.299Z,0.00
2023-02-19T01:32:24.143Z,0.00
2023-02-19T01:33:24.008Z,0.00
2023-02-19T01:34:23.989Z,0.00
2023-02-19T01:35:23.980Z,0.00
2023-02-19T01:36:23.952Z,0.00
2023-02-19T01:37:23.934Z,0.00
2023-02-19T01:38:23.896Z,0.00
2023-02-19T01:39:23.900Z,0.00
2023-02-19T01:40:23.854Z,0.00
2023-02-19T01:41:23.854Z,0.00
2023-02-19T01:42:23.848Z,0.00
2023-02-19T01:43:23.762Z,0.00
2023-02-19T01:44:23.749Z,0.00
2023-02-19T01:45:23.724Z,0.00
2023-02-19T01:46:23.721Z,0.00
2023-02-19T01:47:23.680Z,0.00
2023-02-19T01:48:23.703Z,0.00
2023-02-19T01:49:23.643Z,0.00
2023-02-19T01:50:23.614Z,0.00
2023-02-19T01:51:23.584Z,0.00
2023-02-19T01:52:23.565Z,0.00
2023-02-19T01:53:23.595Z,0.00
2023-02-19T01:54:23.521Z,0.00
2023-02-19T01:55:23.503Z,0.00
2023-02-19T01:56:23.464Z,0.00
2023-02-19T01:57:23.439Z,0.00
2023-02-19T01:58:23.465Z,0.00
2023-02-19T01:59:23.400Z,0.00
2023-02-19T02:00:23.385Z,0.00
2023-02-19T02:01:23.341Z,0.00
2023-02-19T02:02:23.337Z,0.00
2023-02-19T02:03:23.337Z,0.00
2023-02-19T02:04:23.372Z,0.00
2023-02-19T02:05:23.267Z,0.00
2023-02-19T02:06:23.240Z,0.00
2023-02-19T02:07:23.208Z,0.00
2023-02-19T02:08:23.184Z,0.00
2023-02-19T02:09:23.181Z,0.00
2023-02-19T02:10:23.140Z,0.00
2023-02-19T02:11:23.112Z,0.00
2023-02-19T02:12:23.094Z,0.00
2023-02-19T02:13:23.074Z,0.00
2023-02-19T02:14:23.091Z,0.00
2023-02-19T02:15:23.016Z,0.00
2023-02-19T02:16:23.060Z,0.00
2023-02-19T02:17:22.990Z,0.00
2023-02-19T02:18:22.943Z,0.00
2023-02-19T02:19:22.910Z,0.00
2023-02-19T02:20:22.894Z,0.00
2023-02-19T02:21:22.889Z,0.00
2023-02-19T02:22:22.856Z,0.00
2023-02-19T02:23:22.831Z,0.00
2023-02-19T02:24:22.794Z,0.00
2023-02-19T02:25:22.771Z,0.00
2023-02-19T02:26:22.746Z,0.00
2023-02-19T02:27:22.736Z,0.00
2023-02-19T02:28:22.727Z,0.00
2023-02-19T02:29:22.712Z,0.00
2023-02-19T02:30:22.730Z,0.00
2023-02-19T02:31:22.691Z,0.00
2023-02-19T02:32:22.659Z,0.00
2023-02-19T02:33:22.617Z,0.00
2023-02-19T02:34:22.563Z,0.00
2023-02-19T02:35:22.548Z,0.00
2023-02-19T02:36:22.519Z,0.00
2023-02-19T02:37:22.543Z,0.00
2023-02-19T02:38:22.476Z,0.00
2023-02-19T02:39:22.438Z,0.00
2023-02-19T02:40:22.426Z,0.00
2023-02-19T02:41:22.392Z,0.00
2023-02-19T02:42:22.411Z,0.00
2023-02-19T02:43:22.374Z,0.00
2023-02-19T02:44:22.328Z,0.00
2023-02-19T02:45:22.379Z,0.00
2023-02-19T02:46:22.344Z,0.00
2023-02-19T02:47:22.247Z,0.00
2023-02-19T02:48:22.253Z,0.00
2023-02-19T02:49:22.196Z,0.00
2023-02-19T02:50:22.213Z,0.00
2023-02-19T02:51:22.187Z,0.00
2023-02-19T02:52:22.144Z,0.00
2023-02-19T02:53:22.147Z,0.00
2023-02-19T02:54:22.130Z,0.00
2023-02-19T02:55:22.079Z,0.00
2023-02-19T02:56:22.033Z,0.00
2023-02-19T02:57:22.003Z,0.00
2023-02-19T02:58:22.009Z,0.00
2023-02-19T02:59:21.958Z,0.00
2023-02-19T03:00:21.940Z,0.00
2023-02-19T03:02:21.938Z,0.00
2023-02-19T03:03:21.860Z,0.00
2023-02-19T03:04:21.877Z,0.00
2023-02-19T03:05:21.911Z,0.00
2023-02-19T03:06:21.839Z,0.00
2023-02-19T03:07:21.764Z,0.00
2023-02-19T03:08:21.756Z,0.00
2023-02-19T03:09:21.723Z,0.00
2023-02-19T03:10:21.720Z,0.00
2023-02-19T03:11:21.770Z,0.00
2023-02-19T03:12:21.664Z,0.00
2023-02-19T03:13:21.618Z,0.00
2023-02-19T03:14:21.621Z,0.00
2023-02-19T03:15:21.600Z,0.00
2023-02-19T03:16:21.666Z,0.00
2023-02-19T03:17:21.554Z,0.00
2023-02-19T03:18:21.524Z,0.00
2023-02-19T03:19:21.493Z,0.00
2023-02-19T03:20:21.460Z,0.00
2023-02-19T03:21:21.463Z,0.00
2023-02-19T03:22:21.472Z,0.00
2023-02-19T03:23:21.391Z,0.00
2023-02-19T03:24:21.400Z,0.00
2023-02-19T03:25:21.336Z,0.00
2023-02-19T03:26:21.308Z,0.00
2023-02-19T03:27:21.312Z,0.00
2023-02-19T03:28:21.268Z,0.00
2023-02-19T03:29:21.240Z,0.00
2023-02-19T03:30:21.304Z,0.00
2023-02-19T03:31:21.296Z,0.00
2023-02-19T03:32:21.214Z,0.00
2023-02-19T03:33:21.136Z,0.00
2023-02-19T03:34:21.159Z,0.00
2023-02-19T03:35:21.108Z,0.00
2023-02-19T03:36:21.105Z,0.00
2023-02-19T03:37:21.087Z,0.00
2023-02-19T03:38:21.035Z,0.00
2023-02-19T03:39:21.002Z,0.00
2023-02-19T03:40:20.985Z,0.00
2023-02-19T03:41:20.954Z,0.00
2023-02-19T03:42:20.974Z,0.00
2023-02-19T03:43:20.900Z,0.00
2023-02-19T03:44:20.903Z,0.00
2023-02-19T03:45:20.875Z,0.00
2023-02-19T03:46:20.849Z,0.00
2023-02-19T03:47:20.829Z,0.00
2023-02-19T03:48:20.788Z,0.00
2023-02-19T03:49:20.789Z,0.00
2023-02-19T03:50:20.792Z,0.00
2023-02-19T03:51:20.710Z,0.00
2023-02-19T03:52:20.756Z,0.00
2023-02-19T03:53:20.687Z,0.00
2023-02-19T03:54:20.660Z,0.00
2023-02-19T03:55:20.657Z,0.00
2023-02-19T03:56:20.611Z,0.00
2023-02-19T03:57:20.625Z,0.00
2023-02-19T03:58:20.558Z,0.00
2023-02-19T03:59:20.542Z,0.00
2023-02-19T04:00:20.492Z,0.00
2023-02-19T04:01:20.483Z,0.00
2023-02-19T04:02:20.452Z,0.00
2023-02-19T04:03:20.432Z,0.00
2023-02-19T04:04:20.439Z,0.00
2023-02-19T04:05:20.373Z,0.00
2023-02-19T04:06:20.370Z,0.00
2023-02-19T04:07:20.329Z,0.00
2023-02-19T04:08:20.297Z,0.00
2023-02-19T04:09:20.381Z,0.00
2023-02-19T04:10:20.254Z,0.00
2023-02-19T04:11:20.231Z,0.00
2023-02-19T04:12:20.260Z,0.00
2023-02-19T04:13:20.197Z,0.00
2023-02-19T04:14:20.175Z,0.00
2023-02-19T04:15:20.136Z,0.00
2023-02-19T04:16:20.171Z,0.00
2023-02-19T04:17:20.111Z,0.00
2023-02-19T04:18:20.068Z,0.00
2023-02-19T04:19:20.049Z,0.00
2023-02-19T04:20:20.012Z,0.00
2023-02-19T04:21:20.017Z,0.00
2023-02-19T04:22:19.989Z,0.00
2023-02-19T04:23:20.034Z,0.00
2023-02-19T04:24:19.926Z,0.00
2023-02-19T04:25:19.893Z,0.00
2023-02-19T04:26:19.878Z,0.00
2023-02-19T04:27:19.852Z,0.00
2023-02-19T04:28:19.829Z,0.00
2023-02-19T04:29:19.795Z,0.00
2023-02-19T04:30:19.793Z,0.00
2023-02-19T04:31:19.911Z,0.00
2023-02-19T04:32:19.778Z,0.00
2023-02-19T04:33:19.702Z,0.00
2023-02-19T04:34:19.697Z,0.00
2023-02-19T04:35:19.681Z,0.00
2023-02-19T04:36:19.625Z,0.00
2023-02-19T04:37:19.614Z,0.00
2023-02-19T04:38:19.592Z,0.00
2023-02-19T04:39:19.571Z,0.00
2023-02-19T04:40:19.564Z,0.00
2023-02-19T04:41:19.543Z,0.00
2023-02-19T04:42:19.517Z,0.00
2023-02-19T04:43:19.470Z,0.00
2023-02-19T04:44:19.458Z,0.00
2023-02-19T04:45:19.439Z,0.00
2023-02-19T04:46:19.418Z,0.00
2023-02-19T04:47:19.401Z,0.00
2023-02-19T04:48:19.332Z,0.00
2023-02-19T04:49:19.323Z,0.00
2023-02-19T04:50:19.334Z,0.00
2023-02-19T04:51:19.267Z,0.00
2023-02-19T04:52:19.236Z,0.00
2023-02-19T04:53:19.229Z,0.00
2023-02-19T04:54:19.199Z,0.00
2023-02-19T04:55:19.171Z,0.00
2023-02-19T04:56:19.140Z,0.00
2023-02-19T04:57:19.115Z,0.00
2023-02-19T04:58:19.125Z,0.00
2023-02-19T04:59:19.076Z,0.00
2023-02-19T05:00:19.042Z,0.00
2023-02-19T05:01:19.054Z,0.00
2023-02-19T05:02:18.999Z,0.00
2023-02-19T05:03:18.986Z,0.00
2023-02-19T05:04:18.979Z,0.00
2023-02-19T05:05:18.970Z,0.00
2023-02-19T05:06:18.913Z,0.00
2023-02-19T05:07:18.885Z,0.00
2023-02-19T05:08:18.866Z,0.00
2023-02-19T05:09:18.873Z,0.00
2023-02-19T05:10:18.831Z,0.00
2023-02-19T05:11:18.894Z,0.00
2023-02-19T05:12:18.823Z,0.00
2023-02-19T05:13:18.778Z,0.00
2023-02-19T05:14:18.717Z,0.00
2023-02-19T05:15:18.716Z,0.00
2023-02-19T05:16:18.708Z,0.00
2023-02-19T05:17:18.657Z,0.00
2023-02-19T05:18:18.656Z,0.00
2023-02-19T05:19:18.586Z,0.00
2023-02-19T05:20:18.567Z,0.00
2023-02-19T05:21:18.575Z,0.00
2023-02-19T05:22:18.521Z,0.00
2023-02-19T05:23:18.496Z,0.00
2023-02-19T05:24:18.492Z,0.00
2023-02-19T05:25:18.457Z,0.00
2023-02-19T05:26:18.457Z,0.00
2023-02-19T05:27:18.417Z,0.00
2023-02-19T05:28:18.369Z,0.00
2023-02-19T05:29:18.387Z,0.00
2023-02-19T05:30:18.387Z,0.00
2023-02-19T05:31:18.406Z,0.00
2023-02-19T05:32:18.378Z,0.00
2023-02-19T05:33:18.261Z,0.00
2023-02-19T05:34:18.228Z,0.00
2023-02-19T05:35:18.224Z,0.00
2023-02-19T05:36:18.185Z,0.00
2023-02-19T05:37:18.167Z,0.00
2023-02-19T05:38:18.163Z,0.00
2023-02-19T05:39:18.140Z,0.00
2023-02-19T05:40:18.122Z,0.00
2023-02-19T05:41:18.085Z,0.00
2023-02-19T05:42:18.044Z,0.00
2023-02-19T05:43:18.055Z,0.00
2023-02-19T05:44:18.015Z,0.00
2023-02-19T05:45:17.967Z,0.00
2023-02-19T05:46:18.014Z,0.00
2023-02-19T05:47:17.951Z,0.00
2023-02-19T05:48:17.909Z,0.00
2023-02-19T05:49:17.868Z,0.00
2023-02-19T05:50:17.837Z,0.00
2023-02-19T05:51:17.828Z,0.00
2023-02-19T05:52:17.813Z,0.00
2023-02-19T05:53:17.760Z,0.00
2023-02-19T05:54:17.756Z,0.00
2023-02-19T05:55:17.727Z,0.00
2023-02-19T05:56:17.723Z,0.00
2023-02-19T05:57:17.692Z,0.00
2023-02-19T05:58:17.630Z,0.00
2023-02-19T05:59:17.634Z,0.00
2023-02-19T06:00:17.614Z,0.00
2023-02-19T06:01:17.581Z,0.00
2023-02-19T06:02:17.555Z,4.00
2023-02-19T06:03:17.556Z,4.00
2023-02-19T06:04:17.515Z,0.00
2023-02-19T06:05:17.476Z,4.00
2023-02-19T06:06:17.444Z,8.00
2023-02-19T06:07:17.439Z,8.00
2023-02-19T06:08:17.398Z,8.00
2023-02-19T06:09:17.409Z,8.00
2023-02-19T06:10:17.384Z,12.00
2023-02-19T06:11:17.350Z,12.00
2023-02-19T06:12:17.353Z,16.00
2023-02-19T06:13:17.909Z,16.00
2023-02-19T06:14:17.259Z,16.00
2023-02-19T06:15:17.268Z,20.00
2023-02-19T06:16:17.242Z,20.00
2023-02-19T06:17:17.220Z,24.00
2023-02-19T06:18:17.161Z,24.00
2023-02-19T06:19:17.153Z,32.00
2023-02-19T06:20:17.161Z,40.00
2023-02-19T06:21:17.087Z,52.00
2023-02-19T06:22:17.061Z,68.00
2023-02-19T06:23:17.034Z,96.00
2023-02-19T06:24:17.005Z,116.00
2023-02-19T06:25:17.043Z,128.00
2023-02-19T06:26:16.994Z,144.00
2023-02-19T06:27:16.931Z,144.00
2023-02-19T06:28:16.905Z,156.00
2023-02-19T06:29:16.928Z,176.00
2023-02-19T06:30:16.966Z,196.00
2023-02-19T06:31:16.978Z,232.00
2023-02-19T06:32:16.993Z,260.00
2023-02-19T06:33:16.840Z,284.00
2023-02-19T06:34:16.779Z,324.00
2023-02-19T06:35:16.760Z,352.00
2023-02-19T06:36:16.709Z,380.00
2023-02-19T06:37:16.709Z,424.00
2023-02-19T06:38:16.690Z,468.00
2023-02-19T06:39:16.685Z,512.00
2023-02-19T06:40:16.622Z,568.00
2023-02-19T06:41:16.604Z,616.00
2023-02-19T06:42:16.569Z,624.00
2023-02-19T06:43:16.583Z,620.00
2023-02-19T06:44:16.676Z,624.00
2023-02-19T06:45:16.540Z,644.00
2023-02-19T06:46:16.589Z,672.00
2023-02-19T06:47:16.485Z,716.00
2023-02-19T06:48:16.429Z,736.00
2023-02-19T06:49:16.394Z,768.00
2023-02-19T06:50:16.399Z,760.00
2023-02-19T06:51:16.350Z,780.00
2023-02-19T06:52:16.323Z,760.00
2023-02-19T06:53:16.317Z,728.00
2023-02-19T06:54:16.282Z,728.00
2023-02-19T06:55:16.283Z,732.00
2023-02-19T06:56:16.245Z,836.00
2023-02-19T06:57:16.208Z,960.00
2023-02-19T06:58:16.217Z,1020.00
2023-02-19T06:59:16.178Z,1112.00
2023-02-19T07:00:16.128Z,1164.00
2023-02-19T07:01:16.196Z,1176.00
2023-02-19T07:02:16.087Z,1208.00
2023-02-19T07:03:16.067Z,1240.00
2023-02-19T07:04:16.189Z,1268.00
2023-02-19T07:05:16.009Z,1364.00
2023-02-19T07:06:15.976Z,1504.00
2023-02-19T07:07:15.959Z,1472.00
2023-02-19T07:08:15.925Z,1220.00
2023-02-19T07:09:15.925Z,944.00
2023-02-19T07:10:15.881Z,924.00
2023-02-19T07:11:15.863Z,988.00
2023-02-19T07:12:15.834Z,920.00
2023-02-19T07:13:15.830Z,864.00
2023-02-19T07:14:15.846Z,1076.00
2023-02-19T07:15:15.768Z,1248.00
2023-02-19T07:16:15.804Z,1432.00
2023-02-19T07:17:15.721Z,1772.00
2023-02-19T07:18:15.705Z,1992.00
2023-02-19T07:19:15.740Z,2380.00
2023-02-19T07:20:15.713Z,2548.00
2023-02-19T07:21:15.609Z,2844.00
2023-02-19T07:22:15.619Z,3120.00
2023-02-19T07:23:15.583Z,2936.00
2023-02-19T07:24:15.556Z,2772.00
2023-02-19T07:25:15.527Z,2684.00
2023-02-19T07:26:15.504Z,2388.00
2023-02-19T07:27:15.502Z,2380.00
2023-02-19T07:28:15.514Z,2632.00
2023-02-19T07:29:15.423Z,2884.00
2023-02-19T07:30:15.460Z,3064.00
2023-02-19T07:31:15.768Z,3196.00
2023-02-19T07:32:15.375Z,3056.00
2023-02-19T07:33:15.322Z,2876.00
2023-02-19T07:34:15.296Z,2520.00
2023-02-19T07:35:15.303Z,2336.00
2023-02-19T07:36:15.275Z,2248.00
2023-02-19T07:37:15.234Z,2340.00
2023-02-19T07:38:15.204Z,2552.00
2023-02-19T07:39:15.209Z,2640.00
2023-02-19T07:40:15.190Z,2576.00
2023-02-19T07:41:15.190Z,2456.00
2023-02-19T07:42:15.184Z,2500.00
2023-02-19T07:43:15.142Z,2652.00
2023-02-19T07:44:15.064Z,2888.00
2023-02-19T07:45:15.093Z,2932.00
2023-02-19T07:46:15.029Z,3212.00
2023-02-19T07:47:15.042Z,3380.00
2023-02-19T07:48:15.010Z,3320.00
2023-02-19T07:49:14.973Z,3756.00
2023-02-19T07:50:14.922Z,4096.00
2023-02-19T07:51:14.909Z,4016.00
2023-02-19T07:52:14.898Z,3804.00
2023-02-19T07:53:14.892Z,3740.00
2023-02-19T07:54:14.873Z,3804.00
2023-02-19T07:55:14.820Z,3820.00
2023-02-19T07:56:14.785Z,3928.00
2023-02-19T07:57:14.771Z,4016.00
2023-02-19T07:58:14.749Z,3968.00
2023-02-19T07:59:14.733Z,4052.00
2023-02-19T08:00:14.702Z,4416.00
2023-02-19T08:01:14.969Z,4816.00
2023-02-19T08:02:14.678Z,5088.00
2023-02-19T08:03:14.654Z,5364.00
2023-02-19T08:04:14.620Z,5560.00
2023-02-19T08:05:14.630Z,5484.00
2023-02-19T08:06:14.561Z,5360.00
2023-02-19T08:07:14.525Z,5536.00
2023-02-19T08:08:14.519Z,6088.00
2023-02-19T08:09:14.479Z,5984.00
2023-02-19T08:10:14.520Z,6060.00
2023-02-19T08:11:14.461Z,6240.00
2023-02-19T08:12:14.405Z,6132.00
2023-02-19T08:13:14.381Z,6252.00
2023-02-19T08:14:14.387Z,5604.00
2023-02-19T08:15:14.359Z,4904.00
2023-02-19T08:16:21.736Z,4348.00
2023-02-19T08:17:14.306Z,3916.00
2023-02-19T08:18:14.278Z,3284.00
2023-02-19T08:19:14.253Z,2844.00
2023-02-19T08:20:14.246Z,2900.00
2023-02-19T08:21:14.188Z,2972.00
2023-02-19T08:22:14.191Z,3036.00
2023-02-19T08:23:14.203Z,3268.00
2023-02-19T08:24:14.134Z,4240.00
2023-02-19T08:25:14.103Z,5216.00
2023-02-19T08:26:14.120Z,5680.00
2023-02-19T08:27:14.078Z,5876.00
2023-02-19T08:28:14.036Z,6044.00
2023-02-19T08:29:14.031Z,6204.00
2023-02-19T08:30:14.007Z,6352.00
2023-02-19T08:31:14.505Z,6664.00
2023-02-19T08:32:14.037Z,6768.00
2023-02-19T08:33:13.921Z,6680.00
2023-02-19T08:34:13.899Z,5904.00
2023-02-19T08:35:13.908Z,5424.00
2023-02-19T08:36:13.872Z,5100.00
2023-02-19T08:37:13.816Z,5060.00
2023-02-19T08:38:14.026Z,5212.00
2023-02-19T08:39:13.822Z,5560.00
2023-02-19T08:40:13.788Z,5112.00
2023-02-19T08:41:14.096Z,4896.00
2023-02-19T08:42:13.867Z,4240.00
2023-02-19T08:43:13.685Z,3856.00
2023-02-19T08:44:13.697Z,3764.00
2023-02-19T08:45:13.959Z,3860.00
2023-02-19T08:46:13.694Z,4392.00
2023-02-19T08:47:13.613Z,4724.00
2023-02-19T08:48:13.880Z,4744.00
2023-02-19T08:50:13.592Z,4268.00
2023-02-19T08:52:13.467Z,4032.00
2023-02-19T08:53:13.468Z,3720.00
2023-02-19T08:54:13.486Z,3324.00
2023-02-19T08:55:13.388Z,2884.00
2023-02-19T08:56:13.421Z,2896.00
2023-02-19T08:57:13.376Z,3388.00
2023-02-19T08:58:13.330Z,3908.00
2023-02-19T08:59:13.299Z,4420.00
2023-02-19T09:00:13.301Z,4360.00
2023-02-19T09:01:13.809Z,3948.00
2023-02-19T09:02:13.265Z,3360.00
2023-02-19T09:03:13.231Z,3520.00
2023-02-19T09:04:13.233Z,3576.00
2023-02-19T09:05:13.221Z,3356.00
2023-02-19T09:06:13.172Z,3328.00
2023-02-19T09:07:13.187Z,3868.00
2023-02-19T09:08:13.149Z,4376.00
2023-02-19T09:09:13.121Z,4828.00
2023-02-19T09:10:13.069Z,5044.00
2023-02-19T09:11:13.513Z,4856.00
2023-02-19T09:12:13.007Z,4728.00
2023-02-19T09:13:12.985Z,4708.00
2023-02-19T09:14:12.954Z,4560.00
2023-02-19T09:15:12.939Z,3964.00
2023-02-19T09:16:12.907Z,5060.00
2023-02-19T09:17:12.897Z,5364.00
2023-02-19T09:18:12.859Z,6540.00
2023-02-19T09:19:12.850Z,8376.00
2023-02-19T09:20:12.831Z,8712.00
2023-02-19T09:21:13.111Z,8156.00
2023-02-19T09:22:12.778Z,7740.00
2023-02-19T09:23:12.733Z,8144.00
2023-02-19T09:24:12.717Z,8816.00
2023-02-19T09:25:12.713Z,9108.00
2023-02-19T09:26:12.693Z,8912.00
2023-02-19T09:27:12.667Z,8624.00
2023-02-19T09:28:12.675Z,8520.00
2023-02-19T09:29:12.588Z,8960.00
2023-02-19T09:30:12.591Z,8968.00
2023-02-19T09:31:13.129Z,9360.00
2023-02-19T09:32:12.614Z,9016.00
2023-02-19T09:33:12.519Z,8712.00
2023-02-19T09:34:12.495Z,8692.00
2023-02-19T09:35:12.467Z,10060.00
2023-02-19T09:36:12.445Z,10200.00
2023-02-19T09:37:12.408Z,10080.00
2023-02-19T09:38:12.391Z,10020.00
2023-02-19T09:39:12.382Z,9596.00
2023-02-19T09:40:12.370Z,9264.00
2023-02-19T09:41:12.683Z,9576.00
2023-02-19T09:42:12.403Z,9468.00
2023-02-19T09:43:12.285Z,9136.00
2023-02-19T09:44:12.266Z,8872.00
2023-02-19T09:45:12.227Z,8704.00
2023-02-19T09:46:12.298Z,8736.00
2023-02-19T09:47:12.216Z,8652.00
2023-02-19T09:48:12.184Z,8624.00
2023-02-19T09:49:12.159Z,9080.00
2023-02-19T09:50:12.155Z,9644.00
2023-02-19T09:51:12.301Z,10300.00
2023-02-19T09:52:12.079Z,11352.00
2023-02-19T09:53:12.060Z,11948.00
2023-02-19T09:54:12.061Z,12232.00
2023-02-19T09:55:12.046Z,12256.00
2023-02-19T09:56:11.985Z,12308.00
2023-02-19T09:57:11.954Z,12856.00
2023-02-19T09:58:11.962Z,12488.00
2023-02-19T09:59:11.995Z,12480.00
2023-02-19T10:00:11.917Z,13580.00
2023-02-19T10:01:12.312Z,12996.00
2023-02-19T10:02:11.840Z,28384.00
2023-02-19T10:03:11.824Z,39680.00
2023-02-19T10:04:11.805Z,25600.00
2023-02-19T10:05:11.806Z,31232.00
2023-02-19T10:06:11.782Z,25280.00
2023-02-19T10:07:11.778Z,26912.00
2023-02-19T10:08:11.716Z,35200.00
2023-02-19T10:09:11.724Z,37952.00
2023-02-19T10:10:11.677Z,36576.00
2023-02-19T10:11:11.981Z,36448.00
2023-02-19T10:12:11.667Z,35424.00
2023-02-19T10:13:11.609Z,25632.00
2023-02-19T10:14:11.590Z,13592.00
2023-02-19T10:15:11.573Z,37376.00
2023-02-19T10:16:11.644Z,38528.00
2023-02-19T10:17:11.526Z,40928.00
2023-02-19T10:18:11.531Z,28224.00
2023-02-19T10:19:11.529Z,17000.00
2023-02-19T10:20:11.492Z,40864.00
2023-02-19T10:21:11.847Z,28768.00
2023-02-19T10:22:11.412Z,18528.00
2023-02-19T10:23:11.380Z,45216.00
2023-02-19T10:24:11.380Z,44448.00
2023-02-19T10:25:11.458Z,44576.00
2023-02-19T10:26:11.340Z,41120.00
2023-02-19T10:27:11.338Z,17344.00
2023-02-19T10:28:11.297Z,23200.00
2023-02-19T10:29:11.282Z,16140.00
2023-02-19T10:30:11.357Z,16052.00
2023-02-19T10:31:11.616Z,15208.00
2023-02-19T10:32:11.302Z,15576.00
2023-02-19T10:33:11.240Z,15228.00
2023-02-19T10:34:11.173Z,13800.00
2023-02-19T10:35:11.167Z,13036.00
2023-02-19T10:36:11.205Z,10308.00
2023-02-19T10:37:11.112Z,9748.00
2023-02-19T10:38:11.128Z,9312.00
2023-02-19T10:39:11.126Z,9360.00
2023-02-19T10:40:11.093Z,8948.00
2023-02-19T10:41:11.336Z,8296.00
2023-02-19T10:42:11.015Z,8004.00
2023-02-19T10:43:10.989Z,8048.00
2023-02-19T10:44:10.974Z,8008.00
2023-02-19T10:45:10.974Z,8208.00
2023-02-19T10:46:10.962Z,8640.00
2023-02-19T10:47:10.896Z,9208.00
2023-02-19T10:48:10.893Z,9720.00
2023-02-19T10:49:10.856Z,10144.00
2023-02-19T10:50:10.838Z,11536.00
2023-02-19T10:51:11.077Z,12700.00
2023-02-19T10:52:10.800Z,14820.00
2023-02-19T10:53:10.767Z,17312.00
2023-02-19T10:54:10.749Z,17248.00
2023-02-19T10:55:10.795Z,15196.00
2023-02-19T10:56:10.731Z,12896.00
2023-02-19T10:57:10.724Z,20576.00
2023-02-19T10:58:10.665Z,8908.00
2023-02-19T10:59:10.656Z,8824.00
2023-02-19T11:00:10.623Z,11148.00
2023-02-19T11:01:10.943Z,13196.00
2023-02-19T11:02:10.572Z,10616.00
2023-02-19T11:03:10.554Z,8860.00
2023-02-19T11:04:10.578Z,10196.00
2023-02-19T11:05:10.509Z,8704.00
2023-02-19T11:06:10.512Z,7736.00
2023-02-19T11:07:10.492Z,8600.00
2023-02-19T11:08:10.462Z,11032.00
2023-02-19T11:09:10.452Z,12308.00
2023-02-19T11:10:10.418Z,12440.00
2023-02-19T11:11:10.657Z,10732.00
2023-02-19T11:12:10.399Z,10168.00
2023-02-19T11:13:10.337Z,8964.00
2023-02-19T11:14:10.314Z,8572.00
2023-02-19T11:15:10.299Z,8532.00
2023-02-19T11:16:10.339Z,10012.00
2023-02-19T11:17:10.301Z,9868.00
2023-02-19T11:18:10.296Z,9772.00
2023-02-19T11:19:10.586Z,8708.00
2023-02-19T11:20:10.218Z,8132.00
2023-02-19T11:21:10.550Z,7664.00
2023-02-19T11:22:10.191Z,9360.00
2023-02-19T11:23:10.128Z,7580.00
2023-02-19T11:24:10.144Z,4904.00
2023-02-19T11:25:10.079Z,3320.00
2023-02-19T11:26:10.071Z,2400.00
2023-02-19T11:27:10.038Z,2240.00
2023-02-19T11:28:10.023Z,2908.00
2023-02-19T11:29:09.994Z,4416.00
2023-02-19T11:30:10.021Z,6480.00
2023-02-19T11:31:10.861Z,8244.00
2023-02-19T11:32:10.052Z,9836.00
2023-02-19T11:33:09.893Z,10100.00
2023-02-19T11:34:09.894Z,9736.00
2023-02-19T11:35:10.012Z,10036.00
2023-02-19T11:36:10.035Z,9748.00
2023-02-19T11:37:09.813Z,8216.00
2023-02-19T11:38:09.841Z,8288.00
2023-02-19T11:39:09.769Z,8112.00
2023-02-19T11:40:09.751Z,8152.00
2023-02-19T11:41:10.095Z,8864.00
2023-02-19T11:42:09.724Z,8760.00
2023-02-19T11:43:09.703Z,8892.00
2023-02-19T11:44:09.674Z,10456.00
2023-02-19T11:45:09.636Z,11216.00
2023-02-19T11:46:09.610Z,11356.00
2023-02-19T11:47:09.621Z,12468.00
2023-02-19T11:48:09.613Z,11452.00
2023-02-19T11:49:09.552Z,11276.00
2023-02-19T11:50:09.531Z,14356.00
2023-02-19T11:51:09.984Z,16328.00
2023-02-19T11:52:09.510Z,15884.00
2023-02-19T11:53:09.482Z,18208.00
2023-02-19T11:54:09.454Z,22112.00
2023-02-19T11:55:09.436Z,23744.00
2023-02-19T11:56:09.401Z,25024.00
2023-02-19T11:57:09.368Z,23840.00
2023-02-19T11:58:09.358Z,18752.00
2023-02-19T11:59:09.324Z,15892.00
2023-02-19T12:00:09.346Z,14356.00
2023-02-19T12:01:09.872Z,12296.00
2023-02-19T12:02:09.332Z,10588.00
2023-02-19T12:03:09.320Z,9596.00
2023-02-19T12:04:09.243Z,8940.00
2023-02-19T12:05:09.297Z,8568.00
2023-02-19T12:06:09.424Z,8448.00
2023-02-19T12:07:09.170Z,8424.00
2023-02-19T12:08:09.140Z,8924.00
2023-02-19T12:09:09.118Z,10668.00
2023-02-19T12:10:09.113Z,10376.00
2023-02-19T12:11:09.082Z,10600.00
2023-02-19T12:12:09.061Z,10984.00
2023-02-19T12:13:09.042Z,11272.00
2023-02-19T12:14:09.021Z,12432.00
2023-02-19T12:15:08.999Z,12680.00
2023-02-19T12:16:09.059Z,13992.00
2023-02-19T12:17:08.957Z,16072.00
2023-02-19T12:18:08.936Z,24064.00
2023-02-19T12:19:08.917Z,23392.00
2023-02-19T12:20:08.887Z,16424.00
2023-02-19T12:21:09.429Z,14732.00
2023-02-19T12:22:08.838Z,14392.00
2023-02-19T12:23:08.857Z,13476.00
2023-02-19T12:24:08.834Z,12116.00
2023-02-19T12:25:08.823Z,10400.00
2023-02-19T12:26:09.169Z,12080.00
2023-02-19T12:27:08.793Z,13308.00
2023-02-19T12:28:08.754Z,13304.00
2023-02-19T12:29:08.714Z,14680.00
2023-02-19T12:30:08.771Z,23296.00
2023-02-19T12:31:08.695Z,21824.00
2023-02-19T12:32:08.716Z,16228.00
2023-02-19T12:33:08.622Z,13116.00
2023-02-19T12:34:08.606Z,10628.00
2023-02-19T12:35:08.618Z,11884.00
2023-02-19T12:36:08.809Z,10956.00
2023-02-19T12:37:08.590Z,10088.00
2023-02-19T12:38:08.523Z,7800.00
2023-02-19T12:39:08.511Z,8296.00
2023-02-19T12:40:08.493Z,7168.00